createdAt,value
2023-04-21T00:00:24.232Z,23.63
2023-04-21T00:05:26.651Z,25.05
2023-04-21T00:10:27.350Z,23.75
2023-04-21T00:15:27.947Z,24.88
2023-04-21T00:20:30.597Z,23.38
2023-04-21T00:25:31.292Z,24.85
2023-04-21T00:30:31.908Z,23.67
2023-04-21T00:35:33.901Z,24.35
2023-04-21T00:40:34.853Z,23.95
2023-04-21T00:45:36.014Z,22.35
2023-04-21T00:50:38.154Z,25.38
2023-04-21T00:55:40.532Z,24.95
2023-04-21T01:00:42.998Z,25.00
2023-04-21T01:05:44.926Z,25.02
2023-04-21T01:10:45.901Z,25.70
2023-04-21T01:15:46.547Z,24.27
2023-04-21T01:20:50.016Z,24.42
2023-04-21T01:25:52.748Z,24.23
2023-04-21T01:30:54.138Z,25.15
2023-04-21T01:35:56.378Z,24.30
2023-04-21T01:40:58.385Z,23.30
2023-04-21T01:45:59.038Z,23.63
2023-04-21T01:50:59.658Z,23.50
2023-04-21T01:56:01.650Z,25.15
2023-04-21T02:01:04.945Z,23.25
2023-04-21T02:06:06.060Z,23.50
2023-04-21T02:11:08.351Z,23.58
2023-04-21T02:16:13.911Z,24.85
2023-04-21T02:21:15.467Z,22.05
2023-04-21T02:26:17.887Z,23.40
2023-04-21T02:31:18.744Z,21.80
2023-04-21T02:36:19.358Z,24.05
2023-04-21T02:41:21.286Z,22.30
2023-04-21T02:46:21.865Z,22.40
2023-04-21T02:51:23.562Z,22.83
2023-04-21T02:56:25.670Z,21.83
2023-04-21T03:01:26.355Z,21.02
2023-04-21T03:06:28.245Z,22.45
2023-04-21T03:11:30.208Z,22.67
2023-04-21T03:16:30.793Z,19.67
2023-04-21T03:21:31.869Z,20.27
2023-04-21T03:26:33.998Z,21.02
2023-04-21T03:31:34.613Z,21.50
2023-04-21T03:36:35.238Z,20.92
2023-04-21T03:41:37.269Z,21.30
2023-04-21T03:46:38.008Z,20.00
2023-04-21T03:51:38.614Z,21.15
2023-04-21T03:56:40.492Z,19.90
2023-04-21T04:01:42.267Z,20.45
2023-04-21T04:06:42.907Z,20.95
2023-04-21T04:11:44.809Z,22.38
2023-04-21T04:16:45.798Z,23.73
2023-04-21T04:21:48.848Z,20.70
2023-04-21T04:26:51.219Z,21.42
2023-04-21T04:31:52.164Z,21.15
2023-04-21T04:36:52.722Z,18.30
2023-04-21T04:41:54.603Z,17.67
2023-04-21T04:46:55.316Z,17.27
2023-04-21T04:51:56.133Z,17.77
2023-04-21T04:56:58.702Z,17.90
2023-04-21T05:01:59.325Z,17.65
2023-04-21T05:06:59.962Z,17.63
2023-04-21T05:12:02.470Z,17.20
2023-04-21T05:17:03.206Z,16.50
2023-04-21T05:22:06.455Z,16.48
2023-04-21T05:27:08.375Z,16.33
2023-04-21T05:32:09.192Z,16.73
2023-04-21T05:37:11.501Z,15.85
2023-04-21T05:42:13.439Z,17.10
2023-04-21T05:47:14.044Z,16.98
2023-04-21T05:52:14.621Z,17.10
2023-04-21T05:57:17.770Z,17.42
2023-04-21T06:02:18.708Z,17.17
2023-04-21T06:07:19.686Z,16.70
2023-04-21T06:12:21.575Z,15.57
2023-04-21T06:17:22.480Z,14.85
2023-04-21T06:22:23.358Z,14.10
2023-04-21T06:27:25.278Z,16.05
2023-04-21T06:32:25.972Z,14.35
2023-04-21T06:37:26.787Z,14.70
2023-04-21T06:42:28.725Z,13.50
2023-04-21T06:47:29.310Z,11.70
2023-04-21T06:52:29.970Z,12.23
2023-04-21T06:57:31.860Z,12.45
2023-04-21T07:02:32.614Z,11.82
2023-04-21T07:07:33.221Z,11.88
2023-04-21T07:12:35.099Z,10.77
2023-04-21T07:17:35.918Z,11.45
2023-04-21T07:22:37.005Z,11.38
2023-04-21T07:27:39.390Z,10.23
2023-04-21T07:32:40.083Z,9.80
2023-04-21T07:37:41.095Z,9.23
2023-04-21T07:42:43.131Z,9.10
2023-04-21T07:47:43.800Z,10.35
2023-04-21T07:52:44.506Z,8.65
2023-04-21T07:57:46.502Z,8.48
2023-04-21T08:02:47.259Z,8.43
2023-04-21T08:07:48.124Z,8.23
2023-04-21T08:12:50.094Z,6.13
2023-04-21T08:17:50.692Z,6.65
2023-04-21T08:22:51.413Z,6.60
2023-04-21T08:27:53.385Z,5.07
2023-04-21T08:32:54.015Z,4.40
2023-04-21T08:37:54.680Z,3.42
2023-04-21T08:42:59.255Z,3.45
2023-04-21T08:48:01.405Z,2.83
2023-04-21T08:53:02.084Z,2.92
2023-04-21T08:58:06.836Z,3.20
2023-04-21T09:03:19.241Z,3.28
2023-04-21T09:08:27.994Z,3.13
2023-04-21T09:13:34.358Z,2.92
2023-04-21T09:18:36.206Z,2.90
2023-04-21T09:23:44.455Z,2.70
2023-04-21T09:28:47.750Z,2.55
2023-04-21T09:39:17.793Z,2.70
2023-04-21T09:44:21.480Z,3.30
2023-04-21T09:49:24.188Z,2.72
2023-04-21T09:54:30.550Z,2.53
2023-04-21T09:59:36.595Z,2.92
2023-04-21T10:04:38.891Z,2.40
2023-04-21T10:09:45.896Z,2.35
2023-04-21T10:14:51.186Z,2.38
2023-04-21T10:19:53.550Z,1.70
2023-04-21T10:24:56.678Z,2.17
2023-04-21T10:29:59.564Z,2.78
2023-04-21T10:35:00.120Z,2.00
2023-04-21T10:40:00.713Z,1.77
2023-04-21T10:45:08.357Z,2.10
2023-04-21T10:50:14.879Z,2.47
2023-04-21T10:55:17.019Z,2.10
2023-04-21T11:00:21.712Z,2.40
2023-04-21T11:05:28.854Z,1.95
2023-04-21T11:10:29.472Z,2.97
2023-04-21T11:15:32.069Z,1.80
2023-04-21T11:20:32.767Z,2.10
2023-04-21T11:25:33.601Z,1.60
2023-04-21T11:30:36.125Z,2.30
2023-04-21T11:35:41.683Z,2.35
2023-04-21T11:40:47.503Z,2.67
2023-04-21T11:45:51.668Z,2.97
2023-04-21T11:50:52.283Z,2.67
2023-04-21T11:55:53.965Z,1.70
2023-04-21T12:00:56.173Z,1.88
2023-04-21T12:05:57.651Z,2.60
2023-04-21T12:10:59.269Z,2.03
2023-04-21T12:16:04.119Z,2.20
2023-04-21T12:21:05.314Z,2.65
2023-04-21T12:26:06.101Z,2.22
2023-04-21T12:31:08.096Z,2.20
2023-04-21T12:36:13.622Z,2.47
2023-04-21T12:41:27.426Z,2.60
2023-04-21T12:46:29.645Z,2.42
2023-04-21T12:51:31.550Z,1.80
2023-04-21T12:56:32.143Z,2.40
2023-04-21T13:01:34.215Z,2.00
2023-04-21T13:06:34.889Z,2.47
2023-04-21T13:11:35.592Z,2.42
2023-04-21T13:16:37.678Z,2.53
2023-04-21T13:21:38.542Z,2.58
2023-04-21T13:26:39.183Z,2.35
2023-04-21T13:31:41.340Z,1.70
2023-04-21T13:36:42.254Z,2.40
2023-04-21T13:41:42.989Z,3.33
2023-04-21T13:46:45.164Z,3.15
2023-04-21T13:51:45.882Z,2.28
2023-04-21T13:56:46.599Z,2.40
2023-04-21T14:01:48.799Z,2.58
2023-04-21T14:06:49.870Z,3.20
2023-04-21T14:11:51.112Z,2.78
2023-04-21T14:16:53.200Z,2.60
2023-04-21T14:21:54.017Z,2.67
2023-04-21T14:26:54.714Z,2.78
2023-04-21T14:31:58.588Z,2.70
2023-04-21T14:37:00.513Z,3.28
2023-04-21T14:42:01.872Z,2.63
2023-04-21T14:47:09.807Z,2.78
2023-04-21T14:52:11.562Z,2.78
2023-04-21T14:57:20.686Z,2.80
2023-04-21T15:02:23.920Z,2.97
2023-04-21T15:07:25.114Z,3.17
2023-04-21T15:12:26.265Z,3.67
2023-04-21T15:17:28.384Z,3.15
2023-04-21T15:22:29.207Z,3.30
2023-04-21T15:27:30.233Z,3.75
2023-04-21T15:32:32.375Z,4.30
2023-04-21T15:37:33.169Z,3.30
2023-04-21T15:42:33.864Z,4.47
2023-04-21T15:47:35.929Z,4.65
2023-04-21T15:52:37.770Z,4.78
2023-04-21T15:57:38.788Z,4.60
2023-04-21T16:02:41.132Z,5.07
2023-04-21T16:07:43.396Z,4.43
2023-04-21T16:12:45.472Z,5.47
2023-04-21T16:17:48.847Z,4.60
2023-04-21T16:22:50.120Z,4.70
2023-04-21T16:27:50.856Z,5.35
2023-04-21T16:32:52.862Z,5.40
2023-04-21T16:37:53.620Z,4.53
2023-04-21T16:42:54.387Z,4.65
2023-04-21T16:47:56.543Z,4.63
2023-04-21T16:52:57.425Z,5.65
2023-04-21T16:57:58.112Z,5.15
2023-04-21T17:03:00.324Z,5.18
2023-04-21T17:08:01.271Z,5.57
2023-04-21T17:13:02.031Z,5.05
2023-04-21T17:18:04.201Z,5.03
2023-04-21T17:23:05.059Z,5.35
2023-04-21T17:28:06.229Z,5.57
2023-04-21T17:33:15.877Z,4.78
2023-04-21T17:38:18.087Z,5.30
2023-04-21T17:43:18.756Z,5.95
2023-04-21T17:48:21.019Z,6.60
2023-04-21T17:53:21.725Z,6.20
2023-04-21T17:58:22.608Z,5.50
2023-04-21T18:03:24.852Z,5.40
2023-04-21T18:08:26.415Z,5.95
2023-04-21T18:13:27.133Z,5.45
2023-04-21T18:18:29.869Z,5.88
2023-04-21T18:23:30.514Z,6.55
2023-04-21T18:28:32.016Z,6.28
2023-04-21T18:33:34.051Z,6.47
2023-04-21T18:38:34.778Z,6.20
2023-04-21T18:43:35.560Z,12.93
2023-04-21T18:48:37.572Z,6.32
2023-04-21T18:53:38.231Z,5.70
2023-04-21T18:58:38.957Z,6.45
2023-04-21T19:03:41.183Z,8.38
2023-04-21T19:08:43.128Z,7.32
2023-04-21T19:13:44.024Z,7.38
2023-04-21T19:18:47.326Z,6.90
2023-04-21T19:23:48.308Z,7.60
2023-04-21T19:28:49.254Z,7.03
2023-04-21T19:33:52.439Z,6.72
2023-04-21T19:38:53.159Z,7.00
2023-04-21T19:43:53.861Z,6.63
2023-04-21T19:48:55.886Z,6.82
2023-04-21T19:54:10.089Z,6.22
2023-04-21T19:59:12.368Z,5.80
2023-04-21T20:04:14.553Z,7.18
2023-04-21T20:09:16.082Z,6.93
2023-04-21T20:14:18.335Z,6.80
2023-04-21T20:19:23.018Z,6.45
2023-04-21T20:24:23.985Z,6.40
2023-04-21T20:29:24.698Z,7.05
2023-04-21T20:34:26.781Z,7.10
2023-04-21T20:39:27.448Z,6.43
2023-04-21T20:44:31.409Z,6.38
2023-04-21T20:49:33.510Z,6.78
2023-04-21T20:54:34.830Z,7.60
2023-04-21T20:59:36.023Z,7.55
2023-04-21T21:04:38.261Z,7.55
2023-04-21T21:09:39.943Z,7.10
2023-04-21T21:14:41.080Z,7.22
2023-04-21T21:19:43.129Z,7.70
2023-04-21T21:24:43.991Z,7.70
2023-04-21T21:29:44.710Z,8.13
2023-04-21T21:34:46.725Z,8.52
2023-04-21T21:39:47.361Z,9.20
2023-04-21T21:44:47.999Z,8.55
2023-04-21T21:49:54.704Z,9.25
2023-04-21T21:54:56.889Z,9.15
2023-04-21T21:59:57.600Z,9.02
2023-04-21T22:04:59.805Z,9.15
2023-04-21T22:10:00.591Z,9.40
2023-04-21T22:15:01.235Z,9.48
2023-04-21T22:20:08.162Z,9.82
2023-04-21T22:25:10.835Z,14.63
2023-04-21T22:30:12.332Z,13.35
2023-04-21T22:35:14.427Z,12.35
2023-04-21T22:40:15.198Z,13.07
2023-04-21T22:45:15.878Z,10.00
2023-04-21T22:50:17.869Z,9.05
2023-04-21T22:55:18.790Z,10.45
2023-04-21T23:00:19.450Z,9.32
2023-04-21T23:05:21.417Z,8.55
2023-04-21T23:10:22.247Z,8.80
2023-04-21T23:15:22.963Z,8.77
2023-04-21T23:20:25.014Z,8.50
2023-04-21T23:25:25.764Z,8.43
2023-04-21T23:30:26.443Z,8.25
2023-04-21T23:35:28.682Z,8.57
2023-04-21T23:40:29.573Z,8.70
2023-04-21T23:45:30.389Z,8.52
2023-04-21T23:50:32.525Z,8.57
2023-04-21T23:55:33.239Z,7.60
